Time;durP1;ratioP1;P1;durP2;ratioP2;P2;SDS_P1;SDS_P2;PMS_P1;PMS_P2;Temp;Humidity;BMP_temperature;BMP_pressure;BME280_temperature;BME280_humidity;BME280_pressure;Samples;Min_cycle;Max_cycle;Signal;HPM_P1;HPM_P2
2023/07/31 00:00:37;;;;;;;3.83;1.48;;;16.80;99.90;;;;;;5014009;28;20046;-78
2023/07/31 00:03:23;;;;;;;4.13;1.73;;;16.80;99.90;;;;;;5007563;28;20506;-78
2023/07/31 00:06:09;;;;;;;5.28;1.67;;;16.90;99.90;;;;;;5000603;28;20046;-78
2023/07/31 00:08:55;;;;;;;4.05;1.83;;;16.90;99.90;;;;;;5006525;28;20173;-78
2023/07/31 00:11:41;;;;;;;5.18;1.88;;;17.00;99.90;;;;;;5018997;28;20470;-78
2023/07/31 00:14:26;;;;;;;5.03;2.00;;;16.90;99.90;;;;;;5015248;28;20044;-78
2023/07/31 00:17:12;;;;;;;5.53;1.80;;;16.90;99.90;;;;;;5034672;28;20044;-78
2023/07/31 00:19:58;;;;;;;5.20;1.75;;;17.00;99.90;;;;;;5001022;28;20042;-78
2023/07/31 00:22:44;;;;;;;6.95;1.65;;;17.00;99.90;;;;;;5008910;28;20045;-78
2023/07/31 00:25:32;;;;;;;4.88;1.58;;;17.10;99.90;;;;;;5018009;28;20044;-78
2023/07/31 00:28:18;;;;;;;6.13;1.70;;;17.20;99.90;;;;;;5016030;28;20041;-78
2023/07/31 00:31:04;;;;;;;7.05;1.75;;;17.20;99.90;;;;;;5022659;28;20042;-78
2023/07/31 00:33:50;;;;;;;3.60;1.30;;;17.20;99.90;;;;;;5016926;28;20033;-78
2023/07/31 00:36:36;;;;;;;6.00;1.67;;;17.30;99.90;;;;;;4989013;28;20045;-78
2023/07/31 00:39:22;;;;;;;5.00;1.67;;;17.30;99.90;;;;;;4999957;28;20037;-78
2023/07/31 00:42:08;;;;;;;4.65;1.55;;;17.30;99.90;;;;;;5013886;28;20046;-78
2023/07/31 00:44:54;;;;;;;5.47;1.60;;;17.40;99.90;;;;;;5016275;28;20034;-79
2023/07/31 00:47:40;;;;;;;4.88;1.45;;;17.40;99.90;;;;;;5037516;28;20045;-78
2023/07/31 00:50:26;;;;;;;6.40;1.90;;;17.40;99.90;;;;;;5022434;28;20144;-79
2023/07/31 00:53:12;;;;;;;3.70;1.58;;;17.30;99.90;;;;;;5008976;28;20132;-78
2023/07/31 00:55:58;;;;;;;5.00;1.83;;;17.40;99.90;;;;;;5004947;28;20117;-78
2023/07/31 00:58:44;;;;;;;4.53;1.70;;;17.40;99.90;;;;;;5011811;28;20034;-78
2023/07/31 01:01:30;;;;;;;5.43;1.90;;;17.40;99.90;;;;;;5035181;28;20112;-78
2023/07/31 01:04:17;;;;;;;6.20;1.98;;;17.40;99.90;;;;;;5013190;28;20133;-78
2023/07/31 01:07:22;;;;;;;5.57;2.13;;;17.30;99.90;;;;;;5007915;28;20049;-78
2023/07/31 01:10:23;;;;;;;3.38;1.50;;;17.30;99.90;;;;;;5003957;28;20103;-78
2023/07/31 01:13:09;;;;;;;5.75;1.98;;;17.40;99.90;;;;;;5016491;28;20030;-78
2023/07/31 01:15:55;;;;;;;6.00;1.98;;;17.30;99.90;;;;;;5017901;28;20116;-78
2023/07/31 01:18:41;;;;;;;5.22;1.85;;;17.30;99.90;;;;;;5007824;28;20045;-78
2023/07/31 01:21:36;;;;;;;5.10;1.80;;;17.30;99.90;;;;;;4995443;28;20046;-79
2023/07/31 01:24:41;;;;;;;6.55;2.33;;;17.30;99.90;;;;;;5023003;28;20103;-78
2023/07/31 01:27:31;;;;;;;7.15;2.35;;;17.30;99.90;;;;;;5038042;28;20041;-79
2023/07/31 01:30:18;;;;;;;5.60;2.30;;;17.20;99.90;;;;;;5009820;28;20045;-78
2023/07/31 01:33:07;;;;;;;7.25;2.08;;;17.20;99.90;;;;;;5003344;28;20043;-78
2023/07/31 01:35:53;;;;;;;3.60;1.95;;;17.10;99.90;;;;;;5005840;28;20495;-78
2023/07/31 01:38:39;;;;;;;7.32;2.10;;;17.10;99.90;;;;;;5002287;28;20096;-79
2023/07/31 01:41:25;;;;;;;8.60;2.67;;;17.10;99.90;;;;;;5011591;28;20081;-79
2023/07/31 01:44:11;;;;;;;4.97;1.83;;;17.00;99.90;;;;;;5022051;28;20437;-78
2023/07/31 01:46:58;;;;;;;4.20;1.92;;;16.90;99.90;;;;;;5016112;28;20120;-78
2023/07/31 01:49:44;;;;;;;5.90;2.50;;;16.90;99.90;;;;;;5017255;28;20037;-78
2023/07/31 01:52:30;;;;;;;8.52;2.10;;;16.90;99.90;;;;;;5003180;28;20042;-78
2023/07/31 01:55:16;;;;;;;7.53;2.70;;;16.80;99.90;;;;;;4994044;28;20038;-79
2023/07/31 01:58:02;;;;;;;5.63;1.58;;;16.80;99.90;;;;;;5033674;28;20357;-78
2023/07/31 02:00:48;;;;;;;6.15;1.55;;;16.80;99.90;;;;;;5007509;28;20041;-78
2023/07/31 02:03:34;;;;;;;5.70;1.70;;;16.90;99.90;;;;;;5023894;28;20040;-79
2023/07/31 02:06:20;;;;;;;4.28;1.67;;;16.90;99.90;;;;;;5015547;28;20037;-79
2023/07/31 02:09:07;;;;;;;6.65;1.90;;;16.90;99.90;;;;;;5034840;28;20049;-79
2023/07/31 02:11:54;;;;;;;7.07;2.10;;;16.90;99.90;;;;;;5019398;28;20040;-79
2023/07/31 02:14:40;;;;;;;4.65;1.70;;;16.90;99.90;;;;;;5031830;28;20108;-79
2023/07/31 02:17:26;;;;;;;6.43;2.00;;;16.90;99.90;;;;;;5010211;28;20125;-79
2023/07/31 02:20:12;;;;;;;5.15;1.88;;;16.90;99.90;;;;;;5040245;28;20041;-78
2023/07/31 02:22:58;;;;;;;6.45;2.20;;;16.80;99.90;;;;;;5042295;28;20041;-78
2023/07/31 02:25:45;;;;;;;4.10;2.15;;;16.80;99.90;;;;;;5027056;28;20036;-78
2023/07/31 02:28:31;;;;;;;3.97;1.45;;;16.70;99.90;;;;;;5022462;28;20049;-78
2023/07/31 02:31:17;;;;;;;3.42;1.55;;;16.50;99.90;;;;;;5001665;28;20120;-78
2023/07/31 02:34:02;;;;;;;3.70;1.10;;;16.50;99.90;;;;;;5021370;28;20335;-78
2023/07/31 02:36:48;;;;;;;3.38;1.30;;;16.60;99.90;;;;;;5020467;28;20838;-79
2023/07/31 02:39:34;;;;;;;3.30;1.13;;;16.60;99.90;;;;;;5007826;28;20092;-78
2023/07/31 02:42:20;;;;;;;2.13;1.08;;;16.60;99.90;;;;;;5002777;28;20055;-78
2023/07/31 02:45:07;;;;;;;6.30;1.15;;;16.60;99.90;;;;;;5022941;28;20131;-78
2023/07/31 02:47:55;;;;;;;2.55;1.00;;;16.60;99.90;;;;;;5021774;28;20343;-78
2023/07/31 02:50:41;;;;;;;1.88;1.02;;;16.60;99.90;;;;;;4988235;28;20037;-78
2023/07/31 02:53:26;;;;;;;3.10;1.17;;;16.50;99.90;;;;;;5026249;28;20068;-78
2023/07/31 02:56:12;;;;;;;2.95;1.15;;;16.50;99.90;;;;;;5038119;28;20083;-78
2023/07/31 02:58:58;;;;;;;4.10;1.75;;;16.50;99.90;;;;;;5013419;28;20046;-78
2023/07/31 03:01:44;;;;;;;2.92;1.70;;;16.40;99.90;;;;;;5001897;28;20045;-79
2023/07/31 03:04:31;;;;;;;3.03;1.27;;;16.30;99.90;;;;;;5008390;28;20111;-79
2023/07/31 03:07:17;;;;;;;3.28;1.73;;;16.30;99.90;;;;;;5028054;28;20496;-79
2023/07/31 03:10:03;;;;;;;3.78;1.55;;;16.20;99.90;;;;;;4999917;28;20081;-79
2023/07/31 03:12:50;;;;;;;3.58;1.23;;;16.20;99.90;;;;;;5013233;28;20370;-78
2023/07/31 03:15:36;;;;;;;3.60;1.20;;;16.20;99.90;;;;;;5020281;28;20037;-78
2023/07/31 03:18:22;;;;;;;3.58;1.30;;;16.40;99.90;;;;;;5032914;28;20373;-78
2023/07/31 03:21:08;;;;;;;2.08;1.27;;;16.30;99.90;;;;;;5034334;28;20041;-78
2023/07/31 03:23:54;;;;;;;3.70;1.50;;;16.20;99.90;;;;;;5000396;28;20041;-79
2023/07/31 03:26:41;;;;;;;3.53;1.50;;;16.30;99.90;;;;;;5028554;28;20049;-79
2023/07/31 03:29:27;;;;;;;2.30;1.57;;;16.30;99.90;;;;;;5018362;28;20109;-78
2023/07/31 03:32:13;;;;;;;2.95;1.95;;;16.30;99.90;;;;;;5011580;28;20272;-78
2023/07/31 03:34:59;;;;;;;4.25;1.60;;;16.30;99.90;;;;;;5023219;28;20098;-79
2023/07/31 03:37:45;;;;;;;5.28;1.65;;;16.30;99.90;;;;;;5026313;28;20060;-78
2023/07/31 03:40:31;;;;;;;4.75;1.55;;;16.30;99.90;;;;;;5006963;28;20389;-78
2023/07/31 03:43:17;;;;;;;2.83;1.80;;;16.20;99.90;;;;;;5004242;28;20048;-78
2023/07/31 03:46:03;;;;;;;5.25;1.85;;;16.20;99.90;;;;;;5037518;28;20060;-78
2023/07/31 03:48:49;;;;;;;3.97;1.92;;;16.30;99.90;;;;;;5018866;28;20132;-78
2023/07/31 03:51:35;;;;;;;5.50;1.98;;;16.30;99.90;;;;;;5017409;28;20037;-78
2023/07/31 03:54:21;;;;;;;5.78;2.67;;;16.30;99.90;;;;;;5033956;28;20124;-78
2023/07/31 03:57:07;;;;;;;5.63;2.00;;;16.40;99.90;;;;;;5024885;28;20033;-79
2023/07/31 03:59:53;;;;;;;4.32;1.77;;;16.30;99.90;;;;;;5024776;28;20048;-79
2023/07/31 04:02:39;;;;;;;5.70;2.00;;;16.30;99.90;;;;;;5036303;28;20103;-79
2023/07/31 04:05:25;;;;;;;5.00;2.10;;;16.30;99.90;;;;;;5013754;28;20071;-79
2023/07/31 04:08:11;;;;;;;4.30;1.88;;;16.30;99.90;;;;;;5038282;28;20377;-79
2023/07/31 04:10:57;;;;;;;6.78;1.85;;;16.20;99.90;;;;;;5039376;28;20041;-79
2023/07/31 04:13:43;;;;;;;6.53;1.50;;;16.10;99.90;;;;;;5045314;28;20372;-79
2023/07/31 04:16:29;;;;;;;4.53;1.80;;;16.20;99.90;;;;;;5044255;28;20041;-78
2023/07/31 04:19:16;;;;;;;3.97;1.50;;;16.20;99.90;;;;;;5004760;28;20128;-78
2023/07/31 04:22:02;;;;;;;3.35;1.58;;;16.20;99.90;;;;;;5031956;28;20184;-78
2023/07/31 04:24:48;;;;;;;2.97;1.40;;;16.20;99.90;;;;;;5046010;28;20040;-79
2023/07/31 04:27:34;;;;;;;3.90;1.40;;;16.20;99.90;;;;;;5026956;28;20048;-79
2023/07/31 04:30:20;;;;;;;3.70;1.33;;;16.20;99.90;;;;;;5027104;28;20589;-78
2023/07/31 04:33:06;;;;;;;2.70;1.42;;;16.10;99.90;;;;;;5047373;28;20525;-78
2023/07/31 04:35:52;;;;;;;2.40;1.10;;;16.10;99.90;;;;;;5027579;28;20029;-78
2023/07/31 04:38:38;;;;;;;4.10;1.50;;;16.10;99.90;;;;;;5025308;28;20068;-78
2023/07/31 04:41:24;;;;;;;2.25;1.10;;;16.10;99.90;;;;;;5027586;28;20033;-78
2023/07/31 04:44:11;;;;;;;3.03;1.25;;;16.10;99.90;;;;;;5012627;28;20049;-79
2023/07/31 04:46:57;;;;;;;5.05;1.45;;;16.10;99.90;;;;;;5026060;28;20936;-79
2023/07/31 04:49:43;;;;;;;2.70;1.45;;;16.00;99.90;;;;;;5023012;28;20080;-78
2023/07/31 04:52:29;;;;;;;4.28;1.35;;;16.00;99.90;;;;;;5039865;28;20040;-79
2023/07/31 04:55:15;;;;;;;3.00;1.60;;;15.80;99.90;;;;;;5016293;28;20384;-79
2023/07/31 04:58:01;;;;;;;3.17;1.30;;;15.80;99.90;;;;;;5007897;28;20038;-79
2023/07/31 05:00:47;;;;;;;9.75;1.63;;;15.80;99.90;;;;;;5008751;28;20113;-79
2023/07/31 05:03:32;;;;;;;2.55;1.27;;;15.80;99.90;;;;;;5011763;28;20060;-79
2023/07/31 05:06:20;;;;;;;3.78;1.55;;;15.80;99.90;;;;;;5030529;28;20037;-79
2023/07/31 05:09:06;;;;;;;4.60;1.45;;;15.70;99.90;;;;;;5037639;28;20354;-79
2023/07/31 05:11:52;;;;;;;2.88;1.40;;;15.80;99.90;;;;;;5007688;28;20045;-79
2023/07/31 05:14:38;;;;;;;3.95;1.65;;;15.70;99.90;;;;;;5029358;28;20064;-79
2023/07/31 05:17:24;;;;;;;3.95;1.48;;;15.50;99.90;;;;;;5024708;28;20129;-79
2023/07/31 05:20:10;;;;;;;2.42;1.23;;;15.60;99.90;;;;;;5032214;28;20079;-79
2023/07/31 05:22:56;;;;;;;3.78;1.38;;;15.60;99.90;;;;;;5033714;28;20034;-79
2023/07/31 05:25:42;;;;;;;3.83;1.88;;;15.50;99.90;;;;;;5040584;28;20045;-79
2023/07/31 05:28:28;;;;;;;4.97;1.48;;;15.60;99.90;;;;;;5029205;28;20072;-79
2023/07/31 05:31:14;;;;;;;3.83;1.10;;;15.60;99.90;;;;;;5047438;28;20040;-79
2023/07/31 05:34:00;;;;;;;2.83;1.30;;;15.70;99.90;;;;;;5007723;28;20052;-79
2023/07/31 05:36:46;;;;;;;3.83;1.20;;;15.70;99.90;;;;;;5008833;28;20143;-79
2023/07/31 05:39:32;;;;;;;2.45;1.60;;;15.80;99.90;;;;;;5011106;28;20030;-79
2023/07/31 05:42:18;;;;;;;2.08;1.15;;;15.80;99.90;;;;;;5007210;28;20053;-79
2023/07/31 05:45:08;;;;;;;3.60;1.40;;;15.80;99.90;;;;;;5032083;28;20041;-79
2023/07/31 05:47:54;;;;;;;3.33;1.65;;;15.80;99.90;;;;;;5009024;28;20121;-79
2023/07/31 05:50:40;;;;;;;3.05;1.63;;;15.90;99.90;;;;;;5008723;28;20049;-79
2023/07/31 05:53:26;;;;;;;4.85;1.48;;;15.90;99.90;;;;;;5038484;28;20124;-79
2023/07/31 05:56:12;;;;;;;2.60;1.60;;;16.00;99.90;;;;;;5026455;28;20146;-79
2023/07/31 05:58:58;;;;;;;3.10;1.65;;;16.00;99.90;;;;;;5006852;28;20457;-79
2023/07/31 06:01:44;;;;;;;2.25;1.58;;;16.00;99.90;;;;;;5025277;28;20045;-79
2023/07/31 06:04:30;;;;;;;3.65;1.85;;;16.00;99.90;;;;;;5037875;28;20477;-79
2023/07/31 06:07:16;;;;;;;3.10;1.40;;;16.00;99.90;;;;;;5043551;28;20068;-79
2023/07/31 06:10:05;;;;;;;3.25;1.42;;;16.00;99.90;;;;;;5043221;28;20488;-79
2023/07/31 06:12:51;;;;;;;4.32;1.63;;;16.00;99.90;;;;;;5043357;28;20036;-79
2023/07/31 06:15:37;;;;;;;3.38;1.70;;;16.00;99.90;;;;;;5036506;28;20048;-79
2023/07/31 06:18:23;;;;;;;3.72;1.83;;;16.00;99.90;;;;;;5025400;28;20458;-79
2023/07/31 06:21:09;;;;;;;3.42;1.65;;;16.00;99.90;;;;;;5025961;28;20053;-79
2023/07/31 06:23:55;;;;;;;3.75;1.95;;;15.90;99.90;;;;;;5023834;28;20060;-79
2023/07/31 06:26:41;;;;;;;3.60;2.10;;;16.10;99.90;;;;;;5025733;28;20061;-79
2023/07/31 06:29:28;;;;;;;6.80;2.15;;;16.10;99.90;;;;;;5026896;28;20037;-79
2023/07/31 06:32:14;;;;;;;6.00;2.80;;;16.10;99.90;;;;;;5046760;28;20033;-79
2023/07/31 06:35:00;;;;;;;8.55;3.10;;;16.10;99.90;;;;;;5033379;28;20045;-79
2023/07/31 06:37:46;;;;;;;7.10;2.97;;;16.20;99.90;;;;;;5027076;28;20041;-79
2023/07/31 06:40:32;;;;;;;6.72;3.50;;;16.20;99.90;;;;;;5038114;28;20036;-79
2023/07/31 06:43:17;;;;;;;6.05;3.92;;;16.30;99.90;;;;;;5025097;28;20110;-79
2023/07/31 06:46:07;;;;;;;10.25;4.32;;;16.20;99.90;;;;;;5038193;28;20187;-79
2023/07/31 06:48:53;;;;;;;7.75;4.57;;;16.20;99.90;;;;;;5022264;28;20041;-79
2023/07/31 06:51:39;;;;;;;9.18;4.85;;;16.10;99.90;;;;;;5023546;28;20044;-79
2023/07/31 06:54:24;;;;;;;7.20;4.53;;;16.20;99.90;;;;;;5037257;28;20045;-79
2023/07/31 06:57:10;;;;;;;8.82;5.05;;;16.20;99.90;;;;;;4999503;28;20362;-79
2023/07/31 06:59:56;;;;;;;9.15;4.68;;;16.30;99.90;;;;;;5005637;28;20037;-79
2023/07/31 07:02:42;;;;;;;10.63;5.53;;;16.30;99.90;;;;;;5023491;28;20041;-79
2023/07/31 07:05:28;;;;;;;7.78;5.10;;;16.40;99.90;;;;;;5041546;28;20059;-79
2023/07/31 07:08:17;;;;;;;7.45;4.95;;;16.40;99.90;;;;;;5055861;28;20041;-80
2023/07/31 07:11:03;;;;;;;7.88;5.20;;;16.40;99.90;;;;;;5006386;28;20053;-79
2023/07/31 07:13:49;;;;;;;10.63;5.32;;;16.40;99.90;;;;;;5020364;28;20134;-80
2023/07/31 07:16:35;;;;;;;9.70;4.70;;;16.40;99.90;;;;;;5013920;28;20041;-79
2023/07/31 07:19:21;;;;;;;10.60;5.32;;;16.30;99.90;;;;;;5039168;28;20106;-79
2023/07/31 07:22:07;;;;;;;9.63;5.90;;;16.40;99.90;;;;;;5014813;28;20048;-79
2023/07/31 07:24:54;;;;;;;9.93;6.07;;;16.30;99.90;;;;;;5027558;28;20334;-80
2023/07/31 07:27:40;;;;;;;13.50;6.93;;;16.30;99.90;;;;;;5041048;28;20477;-80
2023/07/31 07:30:26;;;;;;;14.93;6.15;;;16.30;99.90;;;;;;5021146;28;20048;-79
2023/07/31 07:33:12;;;;;;;11.70;7.05;;;16.30;99.90;;;;;;5033175;28;20041;-79
2023/07/31 07:36:01;;;;;;;11.95;6.63;;;16.30;99.90;;;;;;5033812;28;20044;-79
2023/07/31 07:38:47;;;;;;;12.20;6.20;;;16.40;99.90;;;;;;5037270;28;20548;-80
2023/07/31 07:41:35;;;;;;;12.00;7.20;;;16.40;99.90;;;;;;5002534;28;20046;-79
2023/07/31 07:44:21;;;;;;;15.82;7.28;;;16.40;99.90;;;;;;5011542;28;20192;-79
2023/07/31 07:47:07;;;;;;;12.20;7.35;;;16.40;99.90;;;;;;5006756;28;20076;-79
2023/07/31 07:49:56;;;;;;;13.93;7.32;;;16.40;99.90;;;;;;5007408;28;20509;-79
2023/07/31 07:52:43;;;;;;;13.85;7.32;;;16.30;99.90;;;;;;5003308;28;20041;-78
2023/07/31 07:55:29;;;;;;;15.45;7.97;;;16.40;99.90;;;;;;5003954;28;20049;-78
2023/07/31 07:58:16;;;;;;;15.15;8.07;;;16.40;99.90;;;;;;5010702;28;20044;-78
2023/07/31 08:01:02;;;;;;;14.43;8.13;;;16.40;99.90;;;;;;5010221;28;20042;-78
2023/07/31 08:03:48;;;;;;;12.98;7.78;;;16.50;99.90;;;;;;5012930;28;20041;-78
2023/07/31 08:06:34;;;;;;;20.33;8.50;;;16.50;99.90;;;;;;5010649;28;20033;-78
2023/07/31 08:09:20;;;;;;;19.25;8.60;;;16.50;99.90;;;;;;5011581;28;20480;-79
2023/07/31 08:12:07;;;;;;;16.67;7.82;;;16.50;99.90;;;;;;5003494;28;20090;-78
2023/07/31 08:14:53;;;;;;;14.57;8.10;;;16.50;99.90;;;;;;5019672;28;20104;-79
2023/07/31 08:17:39;;;;;;;17.90;8.25;;;16.60;99.90;;;;;;5020832;28;20390;-78
2023/07/31 08:20:26;;;;;;;17.60;8.48;;;16.60;99.90;;;;;;5018430;28;20045;-78
2023/07/31 08:23:12;;;;;;;13.57;8.38;;;16.80;99.90;;;;;;5032696;28;20041;-79
2023/07/31 08:25:58;;;;;;;17.35;8.27;;;16.90;99.90;;;;;;5022297;28;20037;-79
2023/07/31 08:28:44;;;;;;;12.30;7.18;;;17.00;99.90;;;;;;5002866;28;20041;-78
2023/07/31 08:31:30;;;;;;;14.88;6.80;;;17.00;99.90;;;;;;5034524;28;20516;-79
2023/07/31 08:34:16;;;;;;;15.98;7.30;;;17.00;99.90;;;;;;5018733;28;20068;-78
2023/07/31 08:37:02;;;;;;;16.20;7.82;;;17.00;99.90;;;;;;5035019;28;20064;-78
2023/07/31 08:39:48;;;;;;;17.73;6.78;;;17.10;99.90;;;;;;5005083;28;20065;-78
2023/07/31 08:42:41;;;;;;;12.40;6.32;;;17.10;99.90;;;;;;5023057;28;20489;-78
2023/07/31 08:45:28;;;;;;;16.08;6.53;;;17.00;99.90;;;;;;5010522;28;20495;-78
2023/07/31 08:48:15;;;;;;;14.10;5.63;;;17.00;99.90;;;;;;5014993;28;20421;-78
2023/07/31 08:51:01;;;;;;;14.55;6.00;;;16.90;99.90;;;;;;5021439;28;20124;-77
2023/07/31 08:53:47;;;;;;;10.18;5.68;;;16.90;99.90;;;;;;5020904;28;20120;-78
2023/07/31 08:56:34;;;;;;;13.68;6.03;;;16.80;99.90;;;;;;5034682;28;20038;-78
2023/07/31 08:59:21;;;;;;;15.57;6.60;;;16.80;99.90;;;;;;5021311;28;20049;-78
2023/07/31 09:02:08;;;;;;;12.95;7.13;;;16.80;99.90;;;;;;5022545;28;20121;-78
2023/07/31 09:04:54;;;;;;;15.20;6.38;;;16.80;99.90;;;;;;5023796;28;20076;-78
2023/07/31 09:07:40;;;;;;;10.35;5.97;;;16.80;99.90;;;;;;5008811;28;20033;-78
2023/07/31 09:10:26;;;;;;;17.35;6.40;;;16.80;99.90;;;;;;5004109;28;20092;-78
2023/07/31 09:13:15;;;;;;;11.98;6.25;;;16.80;99.90;;;;;;5021997;28;20033;-78
2023/07/31 09:16:01;;;;;;;14.68;6.43;;;16.80;99.90;;;;;;5003040;28;20046;-77
2023/07/31 09:19:00;;;;;;;12.32;6.45;;;16.80;99.90;;;;;;5023741;28;20047;-78
2023/07/31 09:21:50;;;;;;;13.20;5.82;;;16.80;99.90;;;;;;5026292;28;20052;-78
2023/07/31 09:24:36;;;;;;;11.77;6.40;;;16.80;99.90;;;;;;5007196;28;20093;-78
2023/07/31 09:27:22;;;;;;;12.77;5.60;;;16.80;99.90;;;;;;5037028;28;20047;-77
2023/07/31 09:30:09;;;;;;;13.65;6.43;;;16.80;99.90;;;;;;5024052;28;20128;-78
2023/07/31 09:33:03;;;;;;;11.80;6.43;;;16.90;99.90;;;;;;5031437;28;20111;-77
2023/07/31 09:35:49;;;;;;;16.63;5.93;;;16.90;99.90;;;;;;5006910;28;20064;-77
2023/07/31 09:38:35;;;;;;;9.05;5.13;;;17.00;99.90;;;;;;5007725;28;20180;-77
2023/07/31 09:41:21;;;;;;;11.10;4.90;;;16.90;99.90;;;;;;5006443;28;20045;-77
2023/07/31 09:44:08;;;;;;;10.48;5.22;;;16.90;99.90;;;;;;5018338;28;20049;-77
2023/07/31 09:46:54;;;;;;;10.75;5.00;;;16.90;99.90;;;;;;5021916;28;20068;-77
2023/07/31 09:49:45;;;;;;;11.90;5.15;;;16.80;99.90;;;;;;5023537;28;20060;-77
2023/07/31 09:52:31;;;;;;;9.50;4.38;;;16.90;99.90;;;;;;5035994;28;20099;-77
2023/07/31 09:55:18;;;;;;;8.80;4.55;;;16.90;99.90;;;;;;5033663;28;20037;-77
2023/07/31 09:58:09;;;;;;;12.68;6.10;;;16.80;99.90;;;;;;5021820;28;20037;-78
2023/07/31 10:00:55;;;;;;;9.77;4.40;;;16.80;99.90;;;;;;5001229;28;20046;-77
2023/07/31 10:03:42;;;;;;;8.90;4.78;;;16.90;99.90;;;;;;5000774;28;20057;-78
2023/07/31 10:06:28;;;;;;;15.23;5.18;;;16.90;99.90;;;;;;5009352;28;20033;-78
2023/07/31 10:09:15;;;;;;;8.07;4.60;;;16.90;99.90;;;;;;5020704;28;20094;-78
2023/07/31 10:12:01;;;;;;;9.63;4.63;;;16.90;99.90;;;;;;5012648;28;20128;-78
2023/07/31 10:14:47;;;;;;;10.32;4.82;;;16.90;99.90;;;;;;5022130;28;20041;-77
2023/07/31 10:17:33;;;;;;;10.75;5.45;;;16.90;99.90;;;;;;5029078;28;20128;-78
2023/07/31 10:20:19;;;;;;;9.35;4.55;;;16.90;99.90;;;;;;5038556;28;20102;-78
2023/07/31 10:23:06;;;;;;;10.18;4.60;;;16.90;99.90;;;;;;5034078;28;20117;-77
2023/07/31 10:25:54;;;;;;;7.65;4.15;;;16.90;99.90;;;;;;5036570;28;20416;-78
2023/07/31 10:28:40;;;;;;;10.32;4.18;;;17.00;99.90;;;;;;5039834;28;20044;-78
2023/07/31 10:31:26;;;;;;;8.90;4.00;;;17.10;99.90;;;;;;5011845;28;20146;-78
2023/07/31 10:34:12;;;;;;;9.05;4.38;;;17.20;99.90;;;;;;5038307;28;20369;-78
2023/07/31 10:37:26;;;;;;;11.38;5.40;;;17.20;99.90;;;;;;5030214;28;20120;-78
2023/07/31 10:40:20;;;;;;;8.00;4.05;;;17.30;99.90;;;;;;5019240;28;20037;-78
2023/07/31 10:43:08;;;;;;;6.50;3.42;;;17.50;99.90;;;;;;5035760;28;20040;-78
2023/07/31 10:45:54;;;;;;;8.15;3.28;;;17.60;99.90;;;;;;5041014;28;20048;-77
2023/07/31 10:48:41;;;;;;;7.68;3.40;;;17.80;99.90;;;;;;5012802;28;20049;-77
2023/07/31 10:51:36;;;;;;;5.65;3.10;;;17.80;99.90;;;;;;5014002;28;20037;-75
2023/07/31 10:54:22;;;;;;;5.90;2.50;;;17.90;99.90;;;;;;5033172;28;20072;-75
2023/07/31 10:57:21;;;;;;;7.63;2.83;;;17.90;99.90;;;;;;5017815;28;20034;-74
2023/07/31 11:00:29;;;;;;;5.65;2.70;;;17.90;99.90;;;;;;5030374;28;20041;-74
2023/07/31 11:03:16;;;;;;;;;;;18.00;99.90;;;;;;5000196;28;20030;-75
2023/07/31 11:06:05;;;;;;;7.18;3.35;;;18.00;99.90;;;;;;5032775;28;19912;-75
2023/07/31 11:08:51;;;;;;;4.90;2.70;;;18.10;99.90;;;;;;5004961;28;20405;-75
2023/07/31 11:11:37;;;;;;;6.90;2.40;;;18.20;99.90;;;;;;5036088;28;20049;-75
2023/07/31 11:14:23;;;;;;;5.35;2.90;;;18.30;99.90;;;;;;5036968;28;20409;-75
2023/07/31 11:17:10;;;;;;;4.45;2.65;;;18.50;99.90;;;;;;5012379;28;20038;-75
2023/07/31 11:19:56;;;;;;;6.63;2.90;;;18.70;99.90;;;;;;5007803;28;20041;-74
2023/07/31 11:22:41;;;;;;;5.47;2.72;;;18.80;99.90;;;;;;5038539;28;20548;-74
2023/07/31 11:25:31;;;;;;;7.55;2.70;;;18.70;99.90;;;;;;5021933;28;20049;-75
2023/07/31 11:28:18;;;;;;;5.80;2.53;;;18.80;99.90;;;;;;5035373;28;20045;-75
2023/07/31 11:31:04;;;;;;;6.20;2.70;;;19.00;99.90;;;;;;5032057;28;20041;-75
2023/07/31 11:33:50;;;;;;;4.68;2.50;;;19.30;99.90;;;;;;5017058;28;20424;-75
2023/07/31 11:36:36;;;;;;;5.35;2.80;;;19.30;99.90;;;;;;5032317;28;20612;-75
2023/07/31 11:39:22;;;;;;;4.15;2.60;;;19.40;99.90;;;;;;5018876;28;20064;-74
2023/07/31 11:42:08;;;;;;;7.43;2.80;;;19.40;99.90;;;;;;4998358;28;20037;-74
2023/07/31 11:44:54;;;;;;;4.80;2.67;;;19.40;99.90;;;;;;5028409;28;20045;-75
2023/07/31 11:47:41;;;;;;;5.53;2.65;;;19.40;99.90;;;;;;5035804;28;20068;-74
2023/07/31 11:50:29;;;;;;;4.88;2.80;;;19.30;99.90;;;;;;5032494;28;20184;-77
2023/07/31 11:53:15;;;;;;;5.93;2.75;;;19.20;99.90;;;;;;5032774;28;20048;-78
2023/07/31 11:56:02;;;;;;;5.93;2.70;;;19.10;99.90;;;;;;5025260;28;20374;-78
2023/07/31 11:58:54;;;;;;;4.43;2.75;;;19.10;99.90;;;;;;5023884;28;20098;-75
2023/07/31 12:01:40;;;;;;;6.10;2.88;;;19.10;99.90;;;;;;5036714;28;20068;-74
2023/07/31 12:04:26;;;;;;;4.43;2.67;;;19.20;99.90;;;;;;5023667;28;20041;-74
2023/07/31 12:07:12;;;;;;;5.10;2.70;;;19.20;99.90;;;;;;5018247;28;20041;-75
2023/07/31 12:09:58;;;;;;;4.63;2.47;;;19.20;99.90;;;;;;4984856;28;20364;-74
2023/07/31 12:12:44;;;;;;;8.70;2.85;;;19.20;99.90;;;;;;4998490;28;20048;-74
2023/07/31 12:15:40;;;;;;;4.15;2.45;;;19.20;99.90;;;;;;5005438;28;20183;-74
2023/07/31 12:18:33;;;;;;;8.48;2.90;;;19.20;99.90;;;;;;5005533;28;20827;-74
2023/07/31 12:21:19;;;;;;;6.40;2.80;;;19.10;99.90;;;;;;5011732;28;20073;-74
2023/07/31 12:24:05;;;;;;;5.88;2.70;;;19.00;99.90;;;;;;5017152;28;20033;-74
2023/07/31 12:26:52;;;;;;;4.88;2.70;;;19.00;99.90;;;;;;5022181;28;20196;-74
2023/07/31 12:29:39;;;;;;;5.70;2.50;;;19.10;99.90;;;;;;5010452;28;20102;-74
2023/07/31 12:32:28;;;;;;;5.72;2.60;;;19.30;99.90;;;;;;5029377;28;20466;-75
2023/07/31 12:35:14;;;;;;;4.03;2.22;;;19.20;99.90;;;;;;5022689;28;20124;-75
2023/07/31 12:38:03;;;;;;;5.70;2.25;;;19.10;99.90;;;;;;5035706;28;20108;-74
2023/07/31 12:40:49;;;;;;;5.63;2.35;;;19.10;99.90;;;;;;5022261;28;20073;-74
2023/07/31 12:43:36;;;;;;;7.13;2.47;;;19.10;99.90;;;;;;5042464;28;20134;-74
2023/07/31 12:46:22;;;;;;;5.60;2.38;;;19.10;99.90;;;;;;5001084;28;20677;-75
2023/07/31 12:49:09;;;;;;;3.45;1.88;;;19.10;99.90;;;;;;5003427;28;20152;-74
2023/07/31 12:51:55;;;;;;;3.75;2.33;;;19.10;99.90;;;;;;4989531;28;20038;-74
2023/07/31 12:54:41;;;;;;;4.00;2.33;;;19.20;99.90;;;;;;5000828;28;20042;-74
2023/07/31 12:57:27;;;;;;;5.43;2.33;;;19.20;99.90;;;;;;5032317;28;20037;-74
2023/07/31 13:00:13;;;;;;;6.13;2.38;;;19.30;99.90;;;;;;5033886;28;20505;-75
2023/07/31 13:03:00;;;;;;;4.70;2.38;;;19.30;99.90;;;;;;5021754;28;20037;-75
2023/07/31 13:05:46;;;;;;;5.60;2.40;;;19.30;99.90;;;;;;5022300;28;20106;-75
2023/07/31 13:08:35;;;;;;;3.72;1.98;;;19.30;99.90;;;;;;5036067;28;20037;-74
2023/07/31 13:11:21;;;;;;;3.38;1.83;;;19.40;99.90;;;;;;5055939;28;20060;-74
2023/07/31 13:14:07;;;;;;;4.47;1.80;;;19.40;99.90;;;;;;5027212;28;20469;-74
2023/07/31 13:16:53;;;;;;;2.88;1.85;;;19.40;99.90;;;;;;5003714;28;20088;-75
2023/07/31 13:19:39;;;;;;;4.05;2.15;;;19.40;99.90;;;;;;4995382;28;20045;-74
2023/07/31 13:22:26;;;;;;;6.00;2.40;;;19.40;99.90;;;;;;5016654;28;20041;-74
2023/07/31 13:25:12;;;;;;;5.00;2.08;;;19.40;99.90;;;;;;5008994;28;20053;-75
2023/07/31 13:27:59;;;;;;;3.45;1.95;;;19.40;99.90;;;;;;5003532;28;20466;-74
2023/07/31 13:30:46;;;;;;;4.13;1.40;;;19.20;99.90;;;;;;5024920;28;20043;-75
2023/07/31 13:33:32;;;;;;;2.72;1.50;;;19.00;99.90;;;;;;5018138;28;20076;-74
2023/07/31 13:36:18;;;;;;;4.78;1.70;;;19.00;99.90;;;;;;5017711;28;20033;-74
2023/07/31 13:39:04;;;;;;;3.38;1.58;;;19.00;99.90;;;;;;5018648;28;20042;-74
2023/07/31 13:41:50;;;;;;;2.38;1.50;;;19.20;99.90;;;;;;4995843;28;20543;-75
2023/07/31 13:44:36;;;;;;;1.88;1.40;;;19.20;99.90;;;;;;5025658;28;20049;-74
2023/07/31 13:47:21;;;;;;;1.90;1.20;;;19.30;99.90;;;;;;5018325;28;20046;-76
2023/07/31 13:50:09;;;;;;;3.35;1.33;;;19.30;99.90;;;;;;4986465;28;20115;-75
2023/07/31 13:52:55;;;;;;;1.42;0.90;;;19.30;99.90;;;;;;5018329;28;20746;-74
2023/07/31 13:55:45;;;;;;;1.73;0.80;;;19.30;99.90;;;;;;4995844;28;20099;-75
2023/07/31 13:58:31;;;;;;;2.53;0.98;;;19.20;99.90;;;;;;4999802;28;20417;-75
2023/07/31 14:01:17;;;;;;;1.98;0.90;;;19.10;99.90;;;;;;5036651;28;20045;-76
2023/07/31 14:04:03;;;;;;;0.85;0.68;;;19.10;99.90;;;;;;5008547;28;20384;-74
2023/07/31 14:06:51;;;;;;;1.48;0.80;;;19.10;99.90;;;;;;5017132;28;20124;-78
2023/07/31 14:09:37;;;;;;;1.60;0.80;;;19.10;99.90;;;;;;5008825;28;20381;-78
2023/07/31 14:12:23;;;;;;;1.15;0.80;;;19.10;99.90;;;;;;5026943;28;20115;-77
2023/07/31 14:15:10;;;;;;;1.30;0.80;;;19.10;99.90;;;;;;5004811;28;20038;-78
2023/07/31 14:17:55;;;;;;;1.75;0.70;;;19.10;99.90;;;;;;5004168;28;20038;-77
2023/07/31 14:20:41;;;;;;;2.03;0.90;;;19.10;99.90;;;;;;5030797;28;20499;-78
2023/07/31 14:23:27;;;;;;;1.05;0.90;;;19.10;99.90;;;;;;5020464;28;20053;-78
2023/07/31 14:26:13;;;;;;;1.85;0.77;;;19.10;99.90;;;;;;5017709;28;20045;-77